159 км

Карта отелей и гостиниц, располагающихся рядом с аэропортом 159 км :

159 км Томская область 59° 52' 12" N, 78° 31' 29.82" E
159 км Томская область 59° 52' 12" N, 78° 31' 29.82" E
Код аэродрома ИКАО
HB68
Код аэродрома RU
ХБ68
Координаты
N59.87000° E078.52495°
Превышение над уровнем моря
82
Основная полоса
Курс магнитный
Длина основной ВПП
Ширина основной ВПП
Покрытие основной ВПП
Освещение ВПП
Тип: 
Вертодром
Класс аэродрома: 
Принадлежность: 
ГА
Статус: 
Недействующий
Сайт: 
E-mail аэродрома: 
Страна: 
Россия
Регион: 
Томская область
Город: 
Дополнительная информация: 

Найти трансфер

С помощью этой формы Вы можете найти трансфер из аэропорта 159 км в город, аэропорт или вокзал:

Карта места

Javascript is required to view this map.

Погода в аэропортах:

Авиационная погода в Усть-Каменогорске

Регион: 
Погода METAR: 
UASK 060800Z 00000MPS 1500 R30/1500N BR PRFG FEW005 M03/M04 Q1022 NOSIG RMK QBB150 QFE741/0988
Время наблюдения
2021-12-06T08:00:00Z
Температура C
-3.0
Точка росы
-4.0
Направление ветра
0
Скорость ветра (узлы)
0
Метео видимость
0.93
Явления погоды
BR PRFG
Условия полета
LIFR
Аэропорт подробнее: 

Авиационная погода в Астане

Регион: 
Погода METAR: 
UACC 060800Z 23006MPS 5000 -DZ BR OVC004 00/M00 Q1017 TEMPO 1000 SHRASN BR BKN003 BKN015CB RMK QBB120 QFE731/0975
Время наблюдения
2021-12-06T08:00:00Z
Температура C
0.0
Точка росы
0.0
Направление ветра
230
Скорость ветра (узлы)
12
Метео видимость
3.11
Явления погоды
-DZ BR
Условия полета
LIFR
Аэропорт подробнее: 

Авиационная погода в Рощино

Регион: 
Погода METAR: 
USTR 060800Z 05002MPS 2100 -SHSN BR SCT009 OVC025CB M06/M07 Q1013 R12/350040 R03/350040 TEMPO 1200 SHSN VV004
Время наблюдения
2021-12-06T08:00:00Z
Температура C
-6.0
Точка росы
-7.0
Направление ветра
50
Скорость ветра (узлы)
4
Метео видимость
1.3
Явления погоды
-SHSN BR
Условия полета
IFR
Аэропорт подробнее: 

Авиационная погода в Кривом Роге

Регион: 
Погода METAR: 
UKDR 060700Z 14006MPS 8000 -RA OVC007 04/02 Q1014 NOSIG
Время наблюдения
2021-12-06T07:00:00Z
Температура C
4.0
Точка росы
2.0
Направление ветра
140
Скорость ветра (узлы)
12
Метео видимость
4.97
Явления погоды
-RA
Условия полета
IFR
Аэропорт подробнее: